Thunder radar more information blitzortung!


Radar de pluja more information rain snow radar


Visita la nostra xarxa de llocs de meteo:

Template documentation
and downloads

And another site



No particular awareness of the weather is required.    There are no Weather-warnings

Pagina Historial Weather Underground text

Diari Resum May 11, 2017 Unitats:  Tant    Imperial   Mètric
« Previous Dia
SegĂźent Dia »
Diari Setmana Mensual Anual Personalitzada
  Maxima: Minima: Media:
Temperatura: 68.9 °F /  20.5 °C 54.1 °F /  12.3 °C 60.3 °F /  15.7 °C
Punt de rosada: 60.3 °F /  15.7 °C 49.6 °F /  9.8 °C 54.7 °F /  12.6 °C
Humitat: 88 % 69 % 83 %
Wind Speed: 6 mph /  9.7 km/h - 2.5 mph /  4.1 km/h
RĂ fegues de vent: 6 mph /  9.7 km/h - -
Vent:- - SE
Pression baro: 29.6 in /  1003.9 hPa 29.5 in /  999.9 hPa -
Precipitacions: 0.55 in /  14.0 mm    
Historical Graphs
 
 
Dades de taula per May 11, 2017
Temps Temperatura Punt de rosada Pression baro Vent Wind Speed RĂ fegues de vent Humitat Rainfall Rate (Hourly)
00:00 58.6 °F /  14.8 °C 52.9 °F /  11.6 °C 29.6 in /  1001.9 hPa NE 3 mph /  4.8 km/h 5 mph /  8.0 km/h 81 % 0 in /  0.0 mm
00:02 60.4 °F /  15.8 °C 54 °F /  12.2 °C 29.6 in /  1003.9 hPa NE 4.6 mph /  7.4 km/h 4.6 mph /  7.4 km/h 79 % 0 in /  0.0 mm
00:07 60.3 °F /  15.7 °C 54.1 °F /  12.3 °C 29.6 in /  1003.9 hPa ENE 6 mph /  9.7 km/h 6 mph /  9.7 km/h 80 % 0 in /  0.0 mm
00:10 58.6 °F /  14.8 °C 52.9 °F /  11.6 °C 29.6 in /  1001.9 hPa NE 3 mph /  4.8 km/h 4 mph /  6.4 km/h 81 % 0 in /  0.0 mm
00:20 58.5 °F /  14.7 °C 52.5 °F /  11.4 °C 29.6 in /  1001.9 hPa NE 3 mph /  4.8 km/h 4 mph /  6.4 km/h 81 % 0 in /  0.0 mm
00:30 58.5 °F /  14.7 °C 52.5 °F /  11.4 °C 29.6 in /  1001.9 hPa NE 3 mph /  4.8 km/h 4 mph /  6.4 km/h 81 % 0 in /  0.0 mm
00:40 58.6 °F /  14.8 °C 52.9 °F /  11.6 °C 29.6 in /  1001.9 hPa NE 2 mph /  3.2 km/h 4 mph /  6.4 km/h 81 % 0 in /  0.0 mm
00:50 58.6 °F /  14.8 °C 52.9 °F /  11.6 °C 29.6 in /  1000.9 hPa NE 2 mph /  3.2 km/h 4 mph /  6.4 km/h 81 % 0 in /  0.0 mm
01:00 58.6 °F /  14.8 °C 52.9 °F /  11.6 °C 29.6 in /  1000.9 hPa NE 1 mph /  1.6 km/h 2 mph /  3.2 km/h 81 % 0 in /  0.0 mm
01:10 58.6 °F /  14.8 °C 52.5 °F /  11.4 °C 29.6 in /  1000.9 hPa NE 1 mph /  1.6 km/h 3 mph /  4.8 km/h 80 % 0 in /  0.0 mm
01:20 58.6 °F /  14.8 °C 52.5 °F /  11.4 °C 29.6 in /  1000.9 hPa NE 3 mph /  4.8 km/h 3 mph /  4.8 km/h 80 % 0 in /  0.0 mm
01:30 58.5 °F /  14.7 °C 52.3 °F /  11.3 °C 29.6 in /  1000.9 hPa NE 2 mph /  3.2 km/h 3 mph /  4.8 km/h 80 % 0 in /  0.0 mm
01:40 58.6 °F /  14.8 °C 52.5 °F /  11.4 °C 29.5 in /  999.9 hPa NE 2 mph /  3.2 km/h 3 mph /  4.8 km/h 80 % 0 in /  0.0 mm
01:50 58.6 °F /  14.8 °C 52.9 °F /  11.6 °C 29.5 in /  999.9 hPa ENE 2 mph /  3.2 km/h 5 mph /  8.0 km/h 81 % 0 in /  0.0 mm
02:00 58.5 °F /  14.7 °C 52.5 °F /  11.4 °C 29.5 in /  999.9 hPa East 3 mph /  4.8 km/h 4 mph /  6.4 km/h 81 % 0 in /  0.0 mm
02:10 58.6 °F /  14.8 °C 52.9 °F /  11.6 °C 29.5 in /  999.9 hPa East 2 mph /  3.2 km/h 6 mph /  9.7 km/h 81 % 0 in /  0.0 mm
02:20 58.5 °F /  14.7 °C 52.5 °F /  11.4 °C 29.5 in /  999.9 hPa East 2 mph /  3.2 km/h 6 mph /  9.7 km/h 81 % 0 in /  0.0 mm
02:30 58.5 °F /  14.7 °C 52.5 °F /  11.4 °C 29.5 in /  999.9 hPa East 2 mph /  3.2 km/h 3 mph /  4.8 km/h 81 % 0 in /  0.0 mm
02:40 58.5 °F /  14.7 °C 52.5 °F /  11.4 °C 29.5 in /  999.9 hPa East 2 mph /  3.2 km/h 6 mph /  9.7 km/h 81 % 0 in /  0.0 mm
02:50 58.5 °F /  14.7 °C 52.5 °F /  11.4 °C 29.5 in /  999.9 hPa East 3 mph /  4.8 km/h 6 mph /  9.7 km/h 81 % 0 in /  0.0 mm
03:00 58.5 °F /  14.7 °C 52.5 °F /  11.4 °C 29.5 in /  999.9 hPa ENE 1 mph /  1.6 km/h 4 mph /  6.4 km/h 81 % 0 in /  0.0 mm
03:10 58.3 °F /  14.6 °C 52.5 °F /  11.4 °C 29.5 in /  999.9 hPa ENE 3 mph /  4.8 km/h 4 mph /  6.4 km/h 81 % 0 in /  0.0 mm
03:20 58.3 °F /  14.6 °C 53.1 °F /  11.7 °C 29.5 in /  999.9 hPa NE 2 mph /  3.2 km/h 4 mph /  6.4 km/h 83 % 0 in /  0.0 mm
03:30 57.9 °F /  14.4 °C 52.9 °F /  11.6 °C 29.5 in /  999.9 hPa ENE 1 mph /  1.6 km/h 3 mph /  4.8 km/h 83 % 0 in /  0.0 mm
03:40 57.9 °F /  14.4 °C 53.1 °F /  11.7 °C 29.6 in /  1000.9 hPa East 1 mph /  1.6 km/h 3 mph /  4.8 km/h 84 % 0 in /  0.0 mm
03:50 57.7 °F /  14.3 °C 52.9 °F /  11.6 °C 29.5 in /  999.9 hPa ENE 3 mph /  4.8 km/h 3 mph /  4.8 km/h 84 % 0 in /  0.0 mm
04:00 57.9 °F /  14.4 °C 53.4 °F /  11.9 °C 29.5 in /  999.9 hPa NE 3 mph /  4.8 km/h 3 mph /  4.8 km/h 85 % 0 in /  0.0 mm
04:10 58.1 °F /  14.5 °C 54 °F /  12.2 °C 29.5 in /  999.9 hPa NNE 1 mph /  1.6 km/h 3 mph /  4.8 km/h 86 % 0 in /  0.0 mm
04:20 57.9 °F /  14.4 °C 53.8 °F /  12.1 °C 29.5 in /  999.9 hPa NE 2 mph /  3.2 km/h 3 mph /  4.8 km/h 86 % 0 in /  0.0 mm
04:30 58.1 °F /  14.5 °C 54 °F /  12.2 °C 29.5 in /  999.9 hPa Calm   2 mph /  3.2 km/h 86 % 0 in /  0.0 mm
04:40 57.9 °F /  14.4 °C 53.8 °F /  12.1 °C 29.6 in /  1000.9 hPa Calm   2 mph /  3.2 km/h 86 % 0.08 in /  2.0 mm
09:47 57.7 °F /  14.3 °C 54 °F /  12.2 °C 29.6 in /  1000.9 hPa Calm   2.4 mph /  3.9 km/h 87 % 0.16 in /  4.1 mm
09:52 57.7 °F /  14.3 °C 54.1 °F /  12.3 °C 29.6 in /  1000.9 hPa Calm     88 % 0.21 in /  5.3 mm
09:57 57.6 °F /  14.2 °C 54 °F /  12.2 °C 29.5 in /  999.9 hPa ENE 3.5 mph /  5.6 km/h 3.5 mph /  5.6 km/h 88 % 0.21 in /  5.3 mm
10:02 57.6 °F /  14.2 °C 54 °F /  12.2 °C 29.5 in /  999.9 hPa ENE 3.5 mph /  5.6 km/h 3.5 mph /  5.6 km/h 88 % 0.21 in /  5.3 mm
10:03 57.6 °F /  14.2 °C 54 °F /  12.2 °C 29.5 in /  999.9 hPa ENE 3.5 mph /  5.6 km/h 3.5 mph /  5.6 km/h 88 % 0.21 in /  5.3 mm
10:08 57.6 °F /  14.2 °C 54 °F /  12.2 °C 29.5 in /  999.9 hPa ENE 3.5 mph /  5.6 km/h 3.5 mph /  5.6 km/h 88 % 0.21 in /  5.3 mm
10:13 57.6 °F /  14.2 °C 54 °F /  12.2 °C 29.5 in /  999.9 hPa ENE 3.5 mph /  5.6 km/h 3.5 mph /  5.6 km/h 88 % 0.21 in /  5.3 mm
10:18 57.6 °F /  14.2 °C 54 °F /  12.2 °C 29.5 in /  999.9 hPa ENE 3.5 mph /  5.6 km/h 3.5 mph /  5.6 km/h 88 % 0.21 in /  5.3 mm
10:23 57.6 °F /  14.2 °C 54 °F /  12.2 °C 29.5 in /  999.9 hPa ENE 3.5 mph /  5.6 km/h 3.5 mph /  5.6 km/h 88 % 0.21 in /  5.3 mm
10:28 57.6 °F /  14.2 °C 54 °F /  12.2 °C 29.5 in /  999.9 hPa ENE 3.5 mph /  5.6 km/h 3.5 mph /  5.6 km/h 88 % 0.21 in /  5.3 mm
10:33 57.6 °F /  14.2 °C 54 °F /  12.2 °C 29.5 in /  999.9 hPa ENE 3.5 mph /  5.6 km/h 3.5 mph /  5.6 km/h 88 % 0.21 in /  5.3 mm
10:38 57.6 °F /  14.2 °C 54 °F /  12.2 °C 29.5 in /  999.9 hPa ENE 3.5 mph /  5.6 km/h 3.5 mph /  5.6 km/h 88 % 0.21 in /  5.3 mm
10:43 57.6 °F /  14.2 °C 54 °F /  12.2 °C 29.5 in /  999.9 hPa ENE 3.5 mph /  5.6 km/h 3.5 mph /  5.6 km/h 88 % 0.13 in /  3.3 mm
10:48 57.6 °F /  14.2 °C 54 °F /  12.2 °C 29.5 in /  999.9 hPa ENE 3.5 mph /  5.6 km/h 3.5 mph /  5.6 km/h 88 % 0.05 in /  1.3 mm
10:53 57.6 °F /  14.2 °C 54 °F /  12.2 °C 29.5 in /  999.9 hPa ENE 3.5 mph /  5.6 km/h 3.5 mph /  5.6 km/h 88 % 0 in /  0.0 mm
10:58 57.6 °F /  14.2 °C 54 °F /  12.2 °C 29.5 in /  999.9 hPa ENE 3.5 mph /  5.6 km/h 3.5 mph /  5.6 km/h 88 % 0 in /  0.0 mm
11:03 57.6 °F /  14.2 °C 54 °F /  12.2 °C 29.5 in /  999.9 hPa ENE 3.5 mph /  5.6 km/h 3.5 mph /  5.6 km/h 88 % 0 in /  0.0 mm
11:08 57.6 °F /  14.2 °C 54 °F /  12.2 °C 29.5 in /  999.9 hPa ENE 3.5 mph /  5.6 km/h 3.5 mph /  5.6 km/h 88 % 0 in /  0.0 mm
11:13 57.6 °F /  14.2 °C 54 °F /  12.2 °C 29.5 in /  999.9 hPa ENE 3.5 mph /  5.6 km/h 3.5 mph /  5.6 km/h 88 % 0 in /  0.0 mm
11:18 57.6 °F /  14.2 °C 54 °F /  12.2 °C 29.5 in /  999.9 hPa ENE 3.5 mph /  5.6 km/h 3.5 mph /  5.6 km/h 88 % 0 in /  0.0 mm
11:23 57.6 °F /  14.2 °C 54 °F /  12.2 °C 29.5 in /  999.9 hPa ENE 3.5 mph /  5.6 km/h 3.5 mph /  5.6 km/h 88 % 0 in /  0.0 mm
11:28 57.6 °F /  14.2 °C 54 °F /  12.2 °C 29.5 in /  999.9 hPa ENE 3.5 mph /  5.6 km/h 3.5 mph /  5.6 km/h 88 % 0 in /  0.0 mm
11:33 57.6 °F /  14.2 °C 54 °F /  12.2 °C 29.5 in /  999.9 hPa ENE 3.5 mph /  5.6 km/h 3.5 mph /  5.6 km/h 88 % 0 in /  0.0 mm
11:38 57.6 °F /  14.2 °C 54 °F /  12.2 °C 29.5 in /  999.9 hPa ENE 3.5 mph /  5.6 km/h 3.5 mph /  5.6 km/h 88 % 0 in /  0.0 mm
11:43 57.6 °F /  14.2 °C 54 °F /  12.2 °C 29.5 in /  999.9 hPa ENE 3.5 mph /  5.6 km/h 3.5 mph /  5.6 km/h 88 % 0 in /  0.0 mm
11:48 57.6 °F /  14.2 °C 54 °F /  12.2 °C 29.5 in /  999.9 hPa ENE 3.5 mph /  5.6 km/h 3.5 mph /  5.6 km/h 88 % 0 in /  0.0 mm
11:53 57.6 °F /  14.2 °C 54 °F /  12.2 °C 29.5 in /  999.9 hPa ENE 3.5 mph /  5.6 km/h 3.5 mph /  5.6 km/h 88 % 0 in /  0.0 mm
11:58 57.6 °F /  14.2 °C 54 °F /  12.2 °C 29.5 in /  999.9 hPa ENE 3.5 mph /  5.6 km/h 3.5 mph /  5.6 km/h 88 % 0 in /  0.0 mm
12:03 57.6 °F /  14.2 °C 54 °F /  12.2 °C 29.5 in /  999.9 hPa ENE 3.5 mph /  5.6 km/h 3.5 mph /  5.6 km/h 88 % 0 in /  0.0 mm
12:08 57.6 °F /  14.2 °C 54 °F /  12.2 °C 29.5 in /  999.9 hPa ENE 3.5 mph /  5.6 km/h 3.5 mph /  5.6 km/h 88 % 0 in /  0.0 mm
12:13 57.6 °F /  14.2 °C 54 °F /  12.2 °C 29.5 in /  999.9 hPa ENE 3.5 mph /  5.6 km/h 3.5 mph /  5.6 km/h 88 % 0 in /  0.0 mm
12:18 57.6 °F /  14.2 °C 54 °F /  12.2 °C 29.5 in /  999.9 hPa ENE 3.5 mph /  5.6 km/h 3.5 mph /  5.6 km/h 88 % 0 in /  0.0 mm
12:23 57.6 °F /  14.2 °C 54 °F /  12.2 °C 29.5 in /  999.9 hPa ENE 3.5 mph /  5.6 km/h 3.5 mph /  5.6 km/h 88 % 0 in /  0.0 mm
12:28 57.6 °F /  14.2 °C 54 °F /  12.2 °C 29.5 in /  999.9 hPa ENE 3.5 mph /  5.6 km/h 3.5 mph /  5.6 km/h 88 % 0 in /  0.0 mm
12:29 57.6 °F /  14.2 °C 54 °F /  12.2 °C 29.5 in /  999.9 hPa ENE 3.5 mph /  5.6 km/h 3.5 mph /  5.6 km/h 88 % 0 in /  0.0 mm
12:34 57.6 °F /  14.2 °C 54 °F /  12.2 °C 29.5 in /  999.9 hPa ENE 3.5 mph /  5.6 km/h 3.5 mph /  5.6 km/h 88 % 0 in /  0.0 mm
12:39 57.6 °F /  14.2 °C 54 °F /  12.2 °C 29.5 in /  999.9 hPa ENE 3.5 mph /  5.6 km/h 3.5 mph /  5.6 km/h 88 % 0 in /  0.0 mm
12:44 57.6 °F /  14.2 °C 54 °F /  12.2 °C 29.5 in /  999.9 hPa ENE 3.5 mph /  5.6 km/h 3.5 mph /  5.6 km/h 88 % 0 in /  0.0 mm
12:49 57.6 °F /  14.2 °C 54 °F /  12.2 °C 29.5 in /  999.9 hPa ENE 3.5 mph /  5.6 km/h 3.5 mph /  5.6 km/h 88 % 0 in /  0.0 mm
12:54 57.6 °F /  14.2 °C 54 °F /  12.2 °C 29.5 in /  999.9 hPa ENE 3.5 mph /  5.6 km/h 3.5 mph /  5.6 km/h 88 % 0 in /  0.0 mm
12:59 57.6 °F /  14.2 °C 54 °F /  12.2 °C 29.5 in /  999.9 hPa ENE 3.5 mph /  5.6 km/h 3.5 mph /  5.6 km/h 88 % 0 in /  0.0 mm
13:04 57.6 °F /  14.2 °C 54 °F /  12.2 °C 29.5 in /  999.9 hPa ENE 3.5 mph /  5.6 km/h 3.5 mph /  5.6 km/h 88 % 0 in /  0.0 mm
13:09 57.6 °F /  14.2 °C 54 °F /  12.2 °C 29.5 in /  999.9 hPa ENE 3.5 mph /  5.6 km/h 3.5 mph /  5.6 km/h 88 % 0 in /  0.0 mm
13:14 57.6 °F /  14.2 °C 54 °F /  12.2 °C 29.5 in /  999.9 hPa ENE 3.5 mph /  5.6 km/h 3.5 mph /  5.6 km/h 88 % 0 in /  0.0 mm
13:19 57.6 °F /  14.2 °C 54 °F /  12.2 °C 29.5 in /  999.9 hPa ENE 3.5 mph /  5.6 km/h 3.5 mph /  5.6 km/h 88 % 0 in /  0.0 mm
13:24 57.6 °F /  14.2 °C 54 °F /  12.2 °C 29.5 in /  999.9 hPa ENE 3.5 mph /  5.6 km/h 3.5 mph /  5.6 km/h 88 % 0 in /  0.0 mm
13:29 57.6 °F /  14.2 °C 54 °F /  12.2 °C 29.5 in /  999.9 hPa ENE 3.5 mph /  5.6 km/h 3.5 mph /  5.6 km/h 88 % 0 in /  0.0 mm
13:34 57.6 °F /  14.2 °C 54 °F /  12.2 °C 29.5 in /  999.9 hPa ENE 3.5 mph /  5.6 km/h 3.5 mph /  5.6 km/h 88 % 0 in /  0.0 mm
13:39 57.6 °F /  14.2 °C 54 °F /  12.2 °C 29.5 in /  999.9 hPa ENE 3.5 mph /  5.6 km/h 3.5 mph /  5.6 km/h 88 % 0 in /  0.0 mm
13:44 57.6 °F /  14.2 °C 54 °F /  12.2 °C 29.5 in /  999.9 hPa ENE 3.5 mph /  5.6 km/h 3.5 mph /  5.6 km/h 88 % 0 in /  0.0 mm
13:49 57.6 °F /  14.2 °C 54 °F /  12.2 °C 29.5 in /  999.9 hPa ENE 3.5 mph /  5.6 km/h 3.5 mph /  5.6 km/h 88 % 0 in /  0.0 mm
13:54 57.6 °F /  14.2 °C 54 °F /  12.2 °C 29.5 in /  999.9 hPa ENE 3.5 mph /  5.6 km/h 3.5 mph /  5.6 km/h 88 % 0 in /  0.0 mm
13:59 57.6 °F /  14.2 °C 54 °F /  12.2 °C 29.5 in /  999.9 hPa ENE 3.5 mph /  5.6 km/h 3.5 mph /  5.6 km/h 88 % 0 in /  0.0 mm
14:04 57.6 °F /  14.2 °C 54 °F /  12.2 °C 29.5 in /  999.9 hPa ENE 3.5 mph /  5.6 km/h 3.5 mph /  5.6 km/h 88 % 0 in /  0.0 mm
14:09 57.6 °F /  14.2 °C 54 °F /  12.2 °C 29.5 in /  999.9 hPa ENE 3.5 mph /  5.6 km/h 3.5 mph /  5.6 km/h 88 % 0 in /  0.0 mm
14:14 57.6 °F /  14.2 °C 54 °F /  12.2 °C 29.5 in /  999.9 hPa ENE 3.5 mph /  5.6 km/h 3.5 mph /  5.6 km/h 88 % 0 in /  0.0 mm
14:19 57.6 °F /  14.2 °C 54 °F /  12.2 °C 29.5 in /  999.9 hPa ENE 3.5 mph /  5.6 km/h 3.5 mph /  5.6 km/h 88 % 0 in /  0.0 mm
14:24 57.6 °F /  14.2 °C 54 °F /  12.2 °C 29.5 in /  999.9 hPa ENE 3.5 mph /  5.6 km/h 3.5 mph /  5.6 km/h 88 % 0 in /  0.0 mm
14:29 57.6 °F /  14.2 °C 54 °F /  12.2 °C 29.5 in /  999.9 hPa ENE 3.5 mph /  5.6 km/h 3.5 mph /  5.6 km/h 88 % 0 in /  0.0 mm
14:34 57.6 °F /  14.2 °C 54 °F /  12.2 °C 29.5 in /  999.9 hPa ENE 3.5 mph /  5.6 km/h 3.5 mph /  5.6 km/h 88 % 0 in /  0.0 mm
14:39 57.6 °F /  14.2 °C 54 °F /  12.2 °C 29.5 in /  999.9 hPa ENE 3.5 mph /  5.6 km/h 3.5 mph /  5.6 km/h 88 % 0 in /  0.0 mm
14:44 57.6 °F /  14.2 °C 54 °F /  12.2 °C 29.5 in /  999.9 hPa ENE 3.5 mph /  5.6 km/h 3.5 mph /  5.6 km/h 88 % 0 in /  0.0 mm
14:49 57.6 °F /  14.2 °C 54 °F /  12.2 °C 29.5 in /  999.9 hPa ENE 3.5 mph /  5.6 km/h 3.5 mph /  5.6 km/h 88 % 0 in /  0.0 mm
14:54 57.6 °F /  14.2 °C 54 °F /  12.2 °C 29.5 in /  999.9 hPa ENE 3.5 mph /  5.6 km/h 3.5 mph /  5.6 km/h 88 % 0 in /  0.0 mm
14:59 57.6 °F /  14.2 °C 54 °F /  12.2 °C 29.5 in /  999.9 hPa ENE 3.5 mph /  5.6 km/h 3.5 mph /  5.6 km/h 88 % 0 in /  0.0 mm
15:04 57.6 °F /  14.2 °C 54 °F /  12.2 °C 29.5 in /  999.9 hPa ENE 3.5 mph /  5.6 km/h 3.5 mph /  5.6 km/h 88 % 0 in /  0.0 mm
15:09 57.6 °F /  14.2 °C 54 °F /  12.2 °C 29.5 in /  999.9 hPa ENE 3.5 mph /  5.6 km/h 3.5 mph /  5.6 km/h 88 % 0 in /  0.0 mm
15:14 57.6 °F /  14.2 °C 54 °F /  12.2 °C 29.5 in /  999.9 hPa ENE 3.5 mph /  5.6 km/h 3.5 mph /  5.6 km/h 88 % 0 in /  0.0 mm
15:24 57.6 °F /  14.2 °C 54 °F /  12.2 °C 29.5 in /  999.9 hPa ENE 3.5 mph /  5.6 km/h 3.5 mph /  5.6 km/h 88 % 0 in /  0.0 mm
15:29 57.6 °F /  14.2 °C 54 °F /  12.2 °C 29.5 in /  999.9 hPa ENE 3.5 mph /  5.6 km/h 3.5 mph /  5.6 km/h 88 % 0 in /  0.0 mm
15:34 57.6 °F /  14.2 °C 54 °F /  12.2 °C 29.5 in /  999.9 hPa ENE 3.5 mph /  5.6 km/h 3.5 mph /  5.6 km/h 88 % 0 in /  0.0 mm
15:39 57.6 °F /  14.2 °C 54 °F /  12.2 °C 29.5 in /  999.9 hPa ENE 3.5 mph /  5.6 km/h 3.5 mph /  5.6 km/h 88 % 0 in /  0.0 mm
15:44 57.6 °F /  14.2 °C 54 °F /  12.2 °C 29.5 in /  999.9 hPa ENE 3.5 mph /  5.6 km/h 3.5 mph /  5.6 km/h 88 % 0 in /  0.0 mm
15:49 57.6 °F /  14.2 °C 54 °F /  12.2 °C 29.5 in /  999.9 hPa ENE 3.5 mph /  5.6 km/h 3.5 mph /  5.6 km/h 88 % 0 in /  0.0 mm
15:54 57.6 °F /  14.2 °C 54 °F /  12.2 °C 29.5 in /  999.9 hPa ENE 3.5 mph /  5.6 km/h 3.5 mph /  5.6 km/h 88 % 0 in /  0.0 mm
15:59 57.6 °F /  14.2 °C 54 °F /  12.2 °C 29.5 in /  999.9 hPa ENE 3.5 mph /  5.6 km/h 3.5 mph /  5.6 km/h 88 % 0 in /  0.0 mm
16:04 57.6 °F /  14.2 °C 54 °F /  12.2 °C 29.5 in /  999.9 hPa ENE 3.5 mph /  5.6 km/h 3.5 mph /  5.6 km/h 88 % 0 in /  0.0 mm
16:09 57.6 °F /  14.2 °C 54 °F /  12.2 °C 29.5 in /  999.9 hPa ENE 3.5 mph /  5.6 km/h 3.5 mph /  5.6 km/h 88 % 0 in /  0.0 mm
16:14 57.6 °F /  14.2 °C 54 °F /  12.2 °C 29.5 in /  999.9 hPa ENE 3.5 mph /  5.6 km/h 3.5 mph /  5.6 km/h 88 % 0 in /  0.0 mm
16:20 58.6 °F /  14.8 °C 53.4 °F /  11.9 °C 29.6 in /  1000.9 hPa NE 3.5 mph /  5.6 km/h 3.5 mph /  5.6 km/h 83 % 0 in /  0.0 mm
16:25 59 °F /  15.0 °C 54.1 °F /  12.3 °C 29.6 in /  1000.9 hPa ESE 3.5 mph /  5.6 km/h 3.5 mph /  5.6 km/h 84 % 0 in /  0.0 mm
16:30 59 °F /  15.0 °C 54.1 °F /  12.3 °C 29.6 in /  1000.9 hPa NNE 2.3 mph /  3.7 km/h 2.3 mph /  3.7 km/h 84 % 0.34 in /  8.6 mm
16:35 59.2 °F /  15.1 °C 54.3 °F /  12.4 °C 29.6 in /  1000.9 hPa ESE 2.3 mph /  3.7 km/h 2.3 mph /  3.7 km/h 84 % 0.34 in /  8.6 mm
16:40 60.3 °F /  15.7 °C 55.8 °F /  13.2 °C 29.6 in /  1001.9 hPa South 1.6 mph /  2.6 km/h   85 % 0.34 in /  8.6 mm
16:45 61.2 °F /  16.2 °C 56.3 °F /  13.5 °C 29.6 in /  1001.9 hPa South 3.5 mph /  5.6 km/h 3.5 mph /  5.6 km/h 84 % 0.34 in /  8.6 mm
16:50 61.5 °F /  16.4 °C 56.7 °F /  13.7 °C 29.6 in /  1001.9 hPa WSW 2.3 mph /  3.7 km/h 2.4 mph /  3.9 km/h 84 % 0.34 in /  8.6 mm
16:55 61.9 °F /  16.6 °C 56.7 °F /  13.7 °C 29.6 in /  1001.9 hPa WSW 1.2 mph /  1.9 km/h 1.2 mph /  1.9 km/h 83 % 0.34 in /  8.6 mm
17:00 62.2 °F /  16.8 °C 57.4 °F /  14.1 °C 29.6 in /  1001.9 hPa Calm     84 % 0.34 in /  8.6 mm
17:05 62.2 °F /  16.8 °C 57.4 °F /  14.1 °C 29.6 in /  1001.9 hPa SSE 1.2 mph /  1.9 km/h   84 % 0.34 in /  8.6 mm
17:10 62.4 °F /  16.9 °C 57.2 °F /  14.0 °C 29.6 in /  1001.9 hPa SW 2.3 mph /  3.7 km/h 2.3 mph /  3.7 km/h 83 % 0.34 in /  8.6 mm
17:15 62.6 °F /  17.0 °C 57.7 °F /  14.3 °C 29.6 in /  1001.9 hPa South 2.3 mph /  3.7 km/h 2.3 mph /  3.7 km/h 84 % 0.34 in /  8.6 mm
17:20 62.8 °F /  17.1 °C 57.9 °F /  14.4 °C 29.6 in /  1001.9 hPa SSW 1.2 mph /  1.9 km/h   84 % 0.34 in /  8.6 mm
17:25 63 °F /  17.2 °C 57.9 °F /  14.4 °C 29.6 in /  1001.9 hPa SW 2.4 mph /  3.9 km/h 2.4 mph /  3.9 km/h 84 % 0.34 in /  8.6 mm
17:30 63.1 °F /  17.3 °C 57.9 °F /  14.4 °C 29.6 in /  1001.9 hPa SW 3.5 mph /  5.6 km/h 3.5 mph /  5.6 km/h 83 % 0 in /  0.0 mm
17:35 64.2 °F /  17.9 °C 59.4 °F /  15.2 °C 29.6 in /  1001.9 hPa SW 2.3 mph /  3.7 km/h 2.3 mph /  3.7 km/h 84 % 0 in /  0.0 mm
17:40 64.9 °F /  18.3 °C 59.4 °F /  15.2 °C 29.6 in /  1000.9 hPa SW 5.8 mph /  9.3 km/h 5.8 mph /  9.3 km/h 82 % 0 in /  0.0 mm
17:45 65.5 °F /  18.6 °C 60.3 °F /  15.7 °C 29.6 in /  1000.9 hPa West 2.3 mph /  3.7 km/h 2.3 mph /  3.7 km/h 83 % 0 in /  0.0 mm
17:50 65.8 °F /  18.8 °C 59.7 °F /  15.4 °C 29.6 in /  1000.9 hPa South 4.6 mph /  7.4 km/h 4.6 mph /  7.4 km/h 81 % 0 in /  0.0 mm
17:55 66.6 °F /  19.2 °C 60.3 °F /  15.7 °C 29.6 in /  1000.9 hPa SW 3.5 mph /  5.6 km/h 3.5 mph /  5.6 km/h 80 % 0 in /  0.0 mm
18:00 66.7 °F /  19.3 °C 60.1 °F /  15.6 °C 29.6 in /  1000.9 hPa WNW 3.1 mph /  5.0 km/h 3.1 mph /  5.0 km/h 79 % 0 in /  0.0 mm
18:05 66.9 °F /  19.4 °C 59.7 °F /  15.4 °C 29.6 in /  1000.9 hPa SSE 2.3 mph /  3.7 km/h 2.3 mph /  3.7 km/h 78 % 0 in /  0.0 mm
18:10 66.9 °F /  19.4 °C 59.5 °F /  15.3 °C 29.6 in /  1000.9 hPa SE 1.2 mph /  1.9 km/h   77 % 0 in /  0.0 mm
18:15 67.5 °F /  19.7 °C 60.1 °F /  15.6 °C 29.6 in /  1000.9 hPa West 2.3 mph /  3.7 km/h 2.3 mph /  3.7 km/h 77 % 0 in /  0.0 mm
18:20 67.3 °F /  19.6 °C 59.5 °F /  15.3 °C 29.6 in /  1000.9 hPa WNW 2.3 mph /  3.7 km/h 2.3 mph /  3.7 km/h 76 % 0 in /  0.0 mm
18:25 67.5 °F /  19.7 °C 59.4 °F /  15.2 °C 29.6 in /  1000.9 hPa NNW 1.2 mph /  1.9 km/h   75 % 0 in /  0.0 mm
18:30 68 °F /  20.0 °C 59.4 °F /  15.2 °C 29.6 in /  1000.9 hPa West 1.6 mph /  2.6 km/h   74 % 0 in /  0.0 mm
18:35 68.2 °F /  20.1 °C 58.8 °F /  14.9 °C 29.6 in /  1000.9 hPa West 1.4 mph /  2.3 km/h 1.4 mph /  2.3 km/h 72 % 0 in /  0.0 mm
18:40 68.9 °F /  20.5 °C 59.5 °F /  15.3 °C 29.5 in /  999.9 hPa WSW 2.4 mph /  3.9 km/h   72 % 0 in /  0.0 mm
18:45 68.7 °F /  20.4 °C 58.8 °F /  14.9 °C 29.5 in /  999.9 hPa NW 1.2 mph /  1.9 km/h 1.2 mph /  1.9 km/h 71 % 0 in /  0.0 mm
18:50 68.4 °F /  20.2 °C 58.3 °F /  14.6 °C 29.5 in /  999.9 hPa NW 1.6 mph /  2.6 km/h   70 % 0 in /  0.0 mm
18:55 68.2 °F /  20.1 °C 57.9 °F /  14.4 °C 29.6 in /  1000.9 hPa NNE 2.4 mph /  3.9 km/h 2.4 mph /  3.9 km/h 70 % 0 in /  0.0 mm
19:00 67.6 °F /  19.8 °C 57.9 °F /  14.4 °C 29.6 in /  1000.9 hPa NE 3.5 mph /  5.6 km/h 3.5 mph /  5.6 km/h 71 % 0 in /  0.0 mm
19:05 67.3 °F /  19.6 °C 57.6 °F /  14.2 °C 29.6 in /  1000.9 hPa NNE 2.3 mph /  3.7 km/h 2.3 mph /  3.7 km/h 71 % 0 in /  0.0 mm
19:10 67.1 °F /  19.5 °C 57.4 °F /  14.1 °C 29.6 in /  1000.9 hPa NE 2.3 mph /  3.7 km/h 2.3 mph /  3.7 km/h 71 % 0 in /  0.0 mm
19:15 67.1 °F /  19.5 °C 57 °F /  13.9 °C 29.6 in /  1000.9 hPa NE 1.2 mph /  1.9 km/h 1.2 mph /  1.9 km/h 70 % 0 in /  0.0 mm
19:20 67.5 °F /  19.7 °C 57.7 °F /  14.3 °C 29.6 in /  1000.9 hPa NW 1.2 mph /  1.9 km/h   71 % 0 in /  0.0 mm
19:25 67.5 °F /  19.7 °C 57.4 °F /  14.1 °C 29.5 in /  999.9 hPa ENE 1.2 mph /  1.9 km/h 1.2 mph /  1.9 km/h 70 % 0 in /  0.0 mm
19:30 67.3 °F /  19.6 °C 56.8 °F /  13.8 °C 29.5 in /  999.9 hPa ESE 3.3 mph /  5.3 km/h   69 % 0 in /  0.0 mm
19:31 67.3 °F /  19.6 °C 56.8 °F /  13.8 °C 29.5 in /  999.9 hPa ESE 3.5 mph /  5.6 km/h 3.5 mph /  5.6 km/h 69 % 0 in /  0.0 mm
19:35 59 °F /  15.0 °C 53.4 °F /  11.9 °C 29.6 in /  1002.9 hPa NE 2 mph /  3.2 km/h 3 mph /  4.8 km/h 82 % 0 in /  0.0 mm
19:36 67.1 °F /  19.5 °C 57 °F /  13.9 °C 29.5 in /  999.9 hPa NNE 2.3 mph /  3.7 km/h 2.3 mph /  3.7 km/h 70 % 0 in /  0.0 mm
19:41 67.1 °F /  19.5 °C 56.7 °F /  13.7 °C 29.6 in /  1000.9 hPa NNE 1.2 mph /  1.9 km/h 1.2 mph /  1.9 km/h 69 % 0 in /  0.0 mm
19:45 59 °F /  15.0 °C 53.8 °F /  12.1 °C 29.6 in /  1002.9 hPa NNE 1 mph /  1.6 km/h 2 mph /  3.2 km/h 83 % 0 in /  0.0 mm
19:46 67.3 °F /  19.6 °C 57.2 °F /  14.0 °C 29.6 in /  1000.9 hPa West 1.2 mph /  1.9 km/h 1.2 mph /  1.9 km/h 70 % 0 in /  0.0 mm
19:51 67.3 °F /  19.6 °C 56.8 °F /  13.8 °C 29.6 in /  1000.9 hPa ESE 3.5 mph /  5.6 km/h 3.5 mph /  5.6 km/h 69 % 0 in /  0.0 mm
19:55 59 °F /  15.0 °C 54.1 °F /  12.3 °C 29.6 in /  1003.9 hPa Calm   1 mph /  1.6 km/h 84 % 0 in /  0.0 mm
19:56 66.9 °F /  19.4 °C 56.8 °F /  13.8 °C 29.6 in /  1000.9 hPa East 3.5 mph /  5.6 km/h 3.5 mph /  5.6 km/h 70 % 0 in /  0.0 mm
20:01 66.7 °F /  19.3 °C 56.7 °F /  13.7 °C 29.6 in /  1000.9 hPa SE 2.3 mph /  3.7 km/h 2.3 mph /  3.7 km/h 70 % 0 in /  0.0 mm
20:05 58.3 °F /  14.6 °C 53.1 °F /  11.7 °C 29.6 in /  1003.9 hPa WNW 1 mph /  1.6 km/h 2 mph /  3.2 km/h 83 % 0 in /  0.0 mm
20:06 66.7 °F /  19.3 °C 57 °F /  13.9 °C 29.6 in /  1000.9 hPa SW 2.4 mph /  3.9 km/h   71 % 0 in /  0.0 mm
20:11 66.7 °F /  19.3 °C 57.4 °F /  14.1 °C 29.6 in /  1000.9 hPa SW 5.8 mph /  9.3 km/h 5.8 mph /  9.3 km/h 72 % 0 in /  0.0 mm
20:15 58.5 °F /  14.7 °C 53.6 °F /  12.0 °C 29.6 in /  1003.9 hPa WSW 1 mph /  1.6 km/h 2 mph /  3.2 km/h 84 % 0 in /  0.0 mm
20:16 66.6 °F /  19.2 °C 57.4 °F /  14.1 °C 29.6 in /  1000.9 hPa South 2.3 mph /  3.7 km/h 2.3 mph /  3.7 km/h 72 % 0 in /  0.0 mm
20:21 66.4 °F /  19.1 °C 57 °F /  13.9 °C 29.6 in /  1000.9 hPa SW 4.9 mph /  7.9 km/h 4.9 mph /  7.9 km/h 72 % 0 in /  0.0 mm
20:25 58.5 °F /  14.7 °C 53.6 °F /  12.0 °C 29.6 in /  1002.9 hPa WSW 1 mph /  1.6 km/h 2 mph /  3.2 km/h 84 % 0 in /  0.0 mm
20:26 66.2 °F /  19.0 °C 56.8 °F /  13.8 °C 29.6 in /  1000.9 hPa SW 3.5 mph /  5.6 km/h 3.5 mph /  5.6 km/h 72 % 0 in /  0.0 mm
20:31 65.8 °F /  18.8 °C 57.4 °F /  14.1 °C 29.6 in /  1000.9 hPa SW 3.3 mph /  5.3 km/h 3.3 mph /  5.3 km/h 74 % 0 in /  0.0 mm
20:35 57.4 °F /  14.1 °C 52.5 °F /  11.4 °C 29.6 in /  1003.9 hPa WSW 2 mph /  3.2 km/h 3 mph /  4.8 km/h 84 % 0 in /  0.0 mm
20:36 65.5 °F /  18.6 °C 57 °F /  13.9 °C 29.6 in /  1000.9 hPa SSW 2.3 mph /  3.7 km/h 2.3 mph /  3.7 km/h 74 % 0 in /  0.0 mm
20:41 64.9 °F /  18.3 °C 56.5 °F /  13.6 °C 29.6 in /  1001.9 hPa WSW 2.6 mph /  4.2 km/h 2.6 mph /  4.2 km/h 74 % 0 in /  0.0 mm
20:45 57.2 °F /  14.0 °C 52.3 °F /  11.3 °C 29.6 in /  1003.9 hPa SW 2 mph /  3.2 km/h 3 mph /  4.8 km/h 84 % 0 in /  0.0 mm
20:46 64.8 °F /  18.2 °C 56.7 °F /  13.7 °C 29.6 in /  1001.9 hPa Calm     75 % 0 in /  0.0 mm
20:51 64.4 °F /  18.0 °C 56.3 °F /  13.5 °C 29.6 in /  1001.9 hPa West 1.2 mph /  1.9 km/h 1.2 mph /  1.9 km/h 75 % 0 in /  0.0 mm
20:55 57 °F /  13.9 °C 52.5 °F /  11.4 °C 29.6 in /  1003.9 hPa SW 2 mph /  3.2 km/h 3 mph /  4.8 km/h 85 % 0 in /  0.0 mm
20:56 64 °F /  17.8 °C 55.9 °F /  13.3 °C 29.6 in /  1001.9 hPa WNW 1.4 mph /  2.3 km/h 1.4 mph /  2.3 km/h 75 % 0 in /  0.0 mm
21:01 63.9 °F /  17.7 °C 55.8 °F /  13.2 °C 29.6 in /  1001.9 hPa West 2.3 mph /  3.7 km/h 2.3 mph /  3.7 km/h 75 % 0 in /  0.0 mm
21:05 57.4 °F /  14.1 °C 53.2 °F /  11.8 °C 29.6 in /  1002.9 hPa SW 1 mph /  1.6 km/h 2 mph /  3.2 km/h 86 % 0 in /  0.0 mm
21:06 63.7 °F /  17.6 °C 55.6 °F /  13.1 °C 29.6 in /  1001.9 hPa West 2.3 mph /  3.7 km/h 2.3 mph /  3.7 km/h 75 % 0 in /  0.0 mm
21:11 63.7 °F /  17.6 °C 55.6 °F /  13.1 °C 29.6 in /  1001.9 hPa WSW 2.4 mph /  3.9 km/h 2.4 mph /  3.9 km/h 75 % 0 in /  0.0 mm
21:15 57.4 °F /  14.1 °C 53.2 °F /  11.8 °C 29.6 in /  1002.9 hPa WSW 1 mph /  1.6 km/h 2 mph /  3.2 km/h 86 % 0 in /  0.0 mm
21:16 63.5 °F /  17.5 °C 55.4 °F /  13.0 °C 29.6 in /  1001.9 hPa West 3.5 mph /  5.6 km/h 3.5 mph /  5.6 km/h 75 % 0 in /  0.0 mm
21:21 63.3 °F /  17.4 °C 55.6 °F /  13.1 °C 29.6 in /  1001.9 hPa West 3.5 mph /  5.6 km/h 3.5 mph /  5.6 km/h 76 % 0 in /  0.0 mm
21:25 57 °F /  13.9 °C 53.2 °F /  11.8 °C 29.6 in /  1002.9 hPa Calm   2 mph /  3.2 km/h 87 % 0 in /  0.0 mm
21:26 63.1 °F /  17.3 °C 55.4 °F /  13.0 °C 29.6 in /  1000.9 hPa WSW 2.6 mph /  4.2 km/h 2.6 mph /  4.2 km/h 76 % 0 in /  0.0 mm
21:31 62.8 °F /  17.1 °C 55 °F /  12.8 °C 29.6 in /  1000.9 hPa WSW 2.3 mph /  3.7 km/h 2.3 mph /  3.7 km/h 76 % 0 in /  0.0 mm
21:35 56.8 °F /  13.8 °C 53.1 °F /  11.7 °C 29.6 in /  1002.9 hPa ENE 1 mph /  1.6 km/h 2 mph /  3.2 km/h 87 % 0 in /  0.0 mm
21:36 62.4 °F /  16.9 °C 55.6 °F /  13.1 °C 29.6 in /  1000.9 hPa WSW 3.5 mph /  5.6 km/h 3.5 mph /  5.6 km/h 78 % 0 in /  0.0 mm
21:41 62.2 °F /  16.8 °C 55.2 °F /  12.9 °C 29.6 in /  1001.9 hPa West 3.5 mph /  5.6 km/h 3.5 mph /  5.6 km/h 78 % 0 in /  0.0 mm
21:45 56.5 °F /  13.6 °C 52.3 °F /  11.3 °C 29.6 in /  1002.9 hPa SW 2 mph /  3.2 km/h 2 mph /  3.2 km/h 86 % 0 in /  0.0 mm
21:46 62.1 °F /  16.7 °C 55 °F /  12.8 °C 29.6 in /  1001.9 hPa SW 2.3 mph /  3.7 km/h 2.3 mph /  3.7 km/h 78 % 0 in /  0.0 mm
21:51 62.1 °F /  16.7 °C 55.6 °F /  13.1 °C 29.6 in /  1001.9 hPa Calm     79 % 0 in /  0.0 mm
21:55 56.3 °F /  13.5 °C 52.2 °F /  11.2 °C 29.6 in /  1002.9 hPa SW 2 mph /  3.2 km/h 2 mph /  3.2 km/h 86 % 0 in /  0.0 mm
21:56 61.9 °F /  16.6 °C 55.2 °F /  12.9 °C 29.6 in /  1001.9 hPa West 1.2 mph /  1.9 km/h   79 % 0 in /  0.0 mm
22:01 61.7 °F /  16.5 °C 55 °F /  12.8 °C 29.6 in /  1001.9 hPa WNW 2.3 mph /  3.7 km/h 2.3 mph /  3.7 km/h 79 % 0 in /  0.0 mm
22:05 56.1 °F /  13.4 °C 52 °F /  11.1 °C 29.6 in /  1002.9 hPa WSW 1 mph /  1.6 km/h 3 mph /  4.8 km/h 86 % 0 in /  0.0 mm
22:06 61.7 °F /  16.5 °C 55 °F /  12.8 °C 29.6 in /  1001.9 hPa West 2.3 mph /  3.7 km/h 2.3 mph /  3.7 km/h 79 % 0 in /  0.0 mm
22:11 61.7 °F /  16.5 °C 55 °F /  12.8 °C 29.6 in /  1001.9 hPa West 2.3 mph /  3.7 km/h 2.3 mph /  3.7 km/h 79 % 0 in /  0.0 mm
22:15 56.3 °F /  13.5 °C 52.5 °F /  11.4 °C 29.6 in /  1002.9 hPa WSW 1 mph /  1.6 km/h 2 mph /  3.2 km/h 87 % 0 in /  0.0 mm
22:16 61.7 °F /  16.5 °C 55 °F /  12.8 °C 29.6 in /  1001.9 hPa West 1.2 mph /  1.9 km/h   79 % 0 in /  0.0 mm
22:21 61.5 °F /  16.4 °C 54.9 °F /  12.7 °C 29.6 in /  1001.9 hPa NW 1.2 mph /  1.9 km/h   79 % 0 in /  0.0 mm
22:25 56.5 °F /  13.6 °C 52.3 °F /  11.3 °C 29.6 in /  1003.9 hPa WSW 2 mph /  3.2 km/h 2 mph /  3.2 km/h 86 % 0 in /  0.0 mm
22:26 61.7 °F /  16.5 °C 55 °F /  12.8 °C 29.6 in /  1001.9 hPa Calm     79 % 0 in /  0.0 mm
22:31 61.5 °F /  16.4 °C 55.2 °F /  12.9 °C 29.6 in /  1001.9 hPa Calm     80 % 0 in /  0.0 mm
22:35 56.3 °F /  13.5 °C 52.2 °F /  11.2 °C 29.6 in /  1002.9 hPa WSW 1 mph /  1.6 km/h 2 mph /  3.2 km/h 86 % 0 in /  0.0 mm
22:36 61.5 °F /  16.4 °C 55.2 °F /  12.9 °C 29.6 in /  1001.9 hPa NW 1.2 mph /  1.9 km/h   80 % 0 in /  0.0 mm
22:41 61.3 °F /  16.3 °C 55 °F /  12.8 °C 29.6 in /  1002.9 hPa Calm     80 % 0 in /  0.0 mm
22:45 55.9 °F /  13.3 °C 51.8 °F /  11.0 °C 29.6 in /  1002.9 hPa West 2 mph /  3.2 km/h 2 mph /  3.2 km/h 86 % 0 in /  0.0 mm
22:46 61.3 °F /  16.3 °C 54.9 °F /  12.7 °C 29.6 in /  1002.9 hPa WNW 2.3 mph /  3.7 km/h 2.3 mph /  3.7 km/h 79 % 0 in /  0.0 mm
22:51 61.3 °F /  16.3 °C 55 °F /  12.8 °C 29.6 in /  1002.9 hPa West 1.2 mph /  1.9 km/h   80 % 0 in /  0.0 mm
22:55 55.9 °F /  13.3 °C 51.8 °F /  11.0 °C 29.6 in /  1002.9 hPa WSW 1 mph /  1.6 km/h 2 mph /  3.2 km/h 86 % 0 in /  0.0 mm
22:56 61.2 °F /  16.2 °C 54.9 °F /  12.7 °C 29.6 in /  1002.9 hPa WNW 1.2 mph /  1.9 km/h   80 % 0 in /  0.0 mm
23:01 61.2 °F /  16.2 °C 54.9 °F /  12.7 °C 29.6 in /  1002.9 hPa WNW 1.2 mph /  1.9 km/h 1.2 mph /  1.9 km/h 80 % 0 in /  0.0 mm
23:05 55.8 °F /  13.2 °C 52 °F /  11.1 °C 29.6 in /  1002.9 hPa WSW 1 mph /  1.6 km/h 1 mph /  1.6 km/h 87 % 0 in /  0.0 mm
23:06 61.2 °F /  16.2 °C 55.2 °F /  12.9 °C 29.6 in /  1002.9 hPa WNW 2.3 mph /  3.7 km/h 2.3 mph /  3.7 km/h 81 % 0 in /  0.0 mm
23:11 61.2 °F /  16.2 °C 55.2 °F /  12.9 °C 29.6 in /  1002.9 hPa West 3.5 mph /  5.6 km/h 3.5 mph /  5.6 km/h 81 % 0 in /  0.0 mm
23:15 55 °F /  12.8 °C 50.5 °F /  10.3 °C 29.6 in /  1002.9 hPa SW 2 mph /  3.2 km/h 3 mph /  4.8 km/h 85 % 0 in /  0.0 mm
23:16 61.2 °F /  16.2 °C 55.2 °F /  12.9 °C 29.6 in /  1002.9 hPa West 2.3 mph /  3.7 km/h 2.3 mph /  3.7 km/h 81 % 0 in /  0.0 mm
23:21 61.2 °F /  16.2 °C 55.2 °F /  12.9 °C 29.6 in /  1002.9 hPa West 2.4 mph /  3.9 km/h 2.4 mph /  3.9 km/h 81 % 0 in /  0.0 mm
23:25 54.9 °F /  12.7 °C 50.4 °F /  10.2 °C 29.6 in /  1002.9 hPa Calm   2 mph /  3.2 km/h 85 % 0 in /  0.0 mm
23:26 61.3 °F /  16.3 °C 55.6 °F /  13.1 °C 29.6 in /  1002.9 hPa West 2.3 mph /  3.7 km/h 2.3 mph /  3.7 km/h 81 % 0 in /  0.0 mm
23:31 61.2 °F /  16.2 °C 55.2 °F /  12.9 °C 29.6 in /  1002.9 hPa West 2.9 mph /  4.7 km/h 2.9 mph /  4.7 km/h 81 % 0 in /  0.0 mm
23:35 54.7 °F /  12.6 °C 50.4 °F /  10.2 °C 29.6 in /  1003.9 hPa West 1 mph /  1.6 km/h 2 mph /  3.2 km/h 85 % 0 in /  0.0 mm
23:36 61.3 °F /  16.3 °C 55.6 °F /  13.1 °C 29.6 in /  1002.9 hPa WSW 4.6 mph /  7.4 km/h 4.6 mph /  7.4 km/h 81 % 0 in /  0.0 mm
23:41 61.2 °F /  16.2 °C 55.2 °F /  12.9 °C 29.6 in /  1002.9 hPa WSW 2.6 mph /  4.2 km/h 2.6 mph /  4.2 km/h 81 % 0 in /  0.0 mm
23:45 54.1 °F /  12.3 °C 49.6 °F /  9.8 °C 29.6 in /  1003.9 hPa WSW 2 mph /  3.2 km/h 3 mph /  4.8 km/h 85 % 0 in /  0.0 mm
23:46 61 °F /  16.1 °C 55 °F /  12.8 °C 29.6 in /  1002.9 hPa WSW 2.4 mph /  3.9 km/h 2.4 mph /  3.9 km/h 81 % 0 in /  0.0 mm
23:51 60.6 °F /  15.9 °C 55 °F /  12.8 °C 29.6 in /  1002.9 hPa SW 2.3 mph /  3.7 km/h 2.3 mph /  3.7 km/h 82 % 0 in /  0.0 mm
23:55 54.1 °F /  12.3 °C 49.6 °F /  9.8 °C 29.6 in /  1002.9 hPa WSW 2 mph /  3.2 km/h 2 mph /  3.2 km/h 85 % 0 in /  0.0 mm
23:56 60.4 °F /  15.8 °C 54.7 °F /  12.6 °C 29.6 in /  1002.9 hPa WSW 3.5 mph /  5.6 km/h 3.5 mph /  5.6 km/h 81 % 0 in /  0.0 mm
Meteo Sesrovires
Elogis d' Weather Underground - 3.75 mb

Guio original per  Jim McMurry - jmcmurry@mwt.net Adaptat per a la plantilla per  Wim van der Kuil - Leuven-Template.eu

Trobareu la nostra informacio del temps tambe a:

Weather Underground

AWEKAS